Time;durP1;ratioP1;P1;durP2;ratioP2;P2;SDS_P1;SDS_P2;PMS_P1;PMS_P2;Temp;Humidity;BMP_temperature;BMP_pressure;BME280_temperature;BME280_humidity;BME280_pressure;Samples;Min_cycle;Max_cycle;Signal;HPM_P1;HPM_P2
2023/08/13 00:02:01;;;;;;;5.65;1.48;;;16.30;99.90;;;;;;4991544;28;20106;-78
2023/08/13 00:04:27;;;;;;;7.07;1.90;;;16.20;99.90;;;;;;4992985;28;20030;-80
2023/08/13 00:06:53;;;;;;;4.43;1.42;;;16.20;99.90;;;;;;4993553;28;20026;-78
2023/08/13 00:09:19;;;;;;;5.72;1.30;;;16.30;99.90;;;;;;5007966;28;20367;-79
2023/08/13 00:11:44;;;;;;;5.28;1.67;;;16.30;99.90;;;;;;4992796;28;20026;-78
2023/08/13 00:14:10;;;;;;;6.00;1.50;;;16.20;99.90;;;;;;4993014;28;20462;-79
2023/08/13 00:16:36;;;;;;;6.75;1.73;;;16.30;99.90;;;;;;5007255;28;20041;-79
2023/08/13 00:19:02;;;;;;;9.25;1.60;;;16.20;99.90;;;;;;4993134;28;20078;-76
2023/08/13 00:21:27;;;;;;;7.40;1.85;;;16.20;99.90;;;;;;4991848;28;20049;-78
2023/08/13 00:23:53;;;;;;;4.95;1.52;;;16.20;99.90;;;;;;4992823;28;20499;-78
2023/08/13 00:26:19;;;;;;;5.13;1.90;;;16.20;99.90;;;;;;4992888;28;20038;-77
2023/08/13 00:28:44;;;;;;;4.75;1.70;;;16.10;99.90;;;;;;4991037;28;20029;-77
2023/08/13 00:31:10;;;;;;;3.72;1.40;;;16.20;99.90;;;;;;4992649;28;20023;-78
2023/08/13 00:33:36;;;;;;;4.05;1.48;;;16.20;99.90;;;;;;4992073;28;20037;-78
2023/08/13 00:36:02;;;;;;;6.60;1.63;;;16.20;99.90;;;;;;4992894;28;20480;-78
2023/08/13 00:38:27;;;;;;;7.70;1.30;;;16.10;99.90;;;;;;4992512;28;20454;-77
2023/08/13 00:40:53;;;;;;;3.22;1.08;;;16.10;99.90;;;;;;4992852;28;20042;-77
2023/08/13 00:43:19;;;;;;;4.85;1.40;;;16.10;99.90;;;;;;4993139;28;20031;-78
2023/08/13 00:45:45;;;;;;;5.28;1.42;;;16.10;99.90;;;;;;4993467;28;20053;-78
2023/08/13 00:48:11;;;;;;;4.97;1.80;;;16.00;99.90;;;;;;4993476;28;20110;-78
2023/08/13 00:50:37;;;;;;;7.72;1.35;;;16.00;99.90;;;;;;5007711;28;20126;-78
2023/08/13 00:53:05;;;;;;;7.18;1.70;;;16.00;99.90;;;;;;4992766;28;20030;-78
2023/08/13 00:55:31;;;;;;;4.93;1.10;;;15.90;99.90;;;;;;4992758;28;20057;-78
2023/08/13 00:57:57;;;;;;;5.13;1.35;;;15.80;99.90;;;;;;4993129;28;20470;-79
2023/08/13 01:00:24;;;;;;;7.65;1.73;;;15.80;99.90;;;;;;4991413;28;20336;-78
2023/08/13 01:02:51;;;;;;;3.22;1.70;;;15.80;99.90;;;;;;4992999;28;20464;-79
2023/08/13 01:05:16;;;;;;;6.75;2.00;;;15.80;99.90;;;;;;4993206;28;20109;-79
2023/08/13 01:07:54;;;;;;;6.68;1.85;;;15.80;99.90;;;;;;4992506;28;20068;-79
2023/08/13 01:10:36;;;;;;;9.13;1.98;;;15.70;99.90;;;;;;4993308;28;20038;-78
2023/08/13 01:13:22;;;;;;;7.45;2.25;;;15.70;99.90;;;;;;4993093;28;20060;-79
2023/08/13 01:15:51;;;;;;;6.88;1.85;;;15.70;99.90;;;;;;4993074;28;20034;-79
2023/08/13 01:18:18;;;;;;;9.15;2.13;;;15.70;99.90;;;;;;4992675;28;20041;-79
2023/08/13 01:20:44;;;;;;;6.55;1.52;;;15.70;99.90;;;;;;4992496;28;20038;-79
2023/08/13 01:23:10;;;;;;;8.10;1.90;;;15.70;99.90;;;;;;4992882;28;20113;-79
2023/08/13 01:25:36;;;;;;;9.50;1.83;;;15.70;99.90;;;;;;5007504;28;20417;-79
2023/08/13 01:28:15;;;;;;;9.23;2.00;;;15.70;99.90;;;;;;4992968;28;20046;-79
2023/08/13 01:30:55;;;;;;;3.95;1.33;;;15.70;99.90;;;;;;5007471;28;20121;-78
2023/08/13 01:33:29;;;;;;;5.13;1.50;;;15.70;99.90;;;;;;4992627;28;20101;-78
2023/08/13 01:36:00;;;;;;;8.98;1.92;;;15.70;99.90;;;;;;4992567;28;20033;-78
2023/08/13 01:38:26;;;;;;;5.63;1.88;;;15.70;99.90;;;;;;4991839;28;20140;-79
2023/08/13 01:40:52;;;;;;;7.93;1.77;;;15.70;99.90;;;;;;4992385;28;20053;-79
2023/08/13 01:43:18;;;;;;;5.35;1.50;;;15.80;99.90;;;;;;4990904;28;20030;-79
2023/08/13 01:45:44;;;;;;;6.97;1.75;;;15.80;99.90;;;;;;4990442;28;20053;-79
2023/08/13 01:48:10;;;;;;;4.38;1.52;;;15.80;99.90;;;;;;4991794;28;20042;-79
2023/08/13 01:50:39;;;;;;;4.82;1.58;;;15.80;99.90;;;;;;4991278;28;20026;-79
2023/08/13 01:53:05;;;;;;;4.80;1.50;;;15.70;99.90;;;;;;4992275;28;20352;-79
2023/08/13 01:55:31;;;;;;;4.10;1.38;;;15.70;99.90;;;;;;4991351;28;20523;-78
2023/08/13 01:57:56;;;;;;;4.93;1.52;;;15.70;99.90;;;;;;4991959;28;20122;-78
2023/08/13 02:00:22;;;;;;;5.95;1.52;;;15.70;99.90;;;;;;4991695;28;20031;-78
2023/08/13 02:02:48;;;;;;;3.20;1.33;;;15.60;99.90;;;;;;5006431;28;20420;-78
2023/08/13 02:05:14;;;;;;;7.18;1.52;;;15.50;99.90;;;;;;4991442;28;20387;-78
2023/08/13 02:07:39;;;;;;;5.72;1.70;;;15.60;99.90;;;;;;4990966;28;20022;-79
2023/08/13 02:10:05;;;;;;;5.35;1.55;;;15.50;99.90;;;;;;4991469;28;20054;-78
2023/08/13 02:12:31;;;;;;;5.40;1.48;;;15.40;99.90;;;;;;4989671;28;20036;-78
2023/08/13 02:14:57;;;;;;;6.63;1.70;;;15.30;99.90;;;;;;4991468;28;20036;-78
2023/08/13 02:17:23;;;;;;;5.55;1.85;;;15.40;99.90;;;;;;4991563;28;20030;-78
2023/08/13 02:19:48;;;;;;;5.35;1.73;;;15.30;99.90;;;;;;4989401;28;20029;-79
2023/08/13 02:22:14;;;;;;;5.22;1.70;;;15.30;99.90;;;;;;4991450;28;20445;-79
2023/08/13 02:24:40;;;;;;;3.53;1.83;;;15.30;99.90;;;;;;4990925;28;20115;-78
2023/08/13 02:27:05;;;;;;;8.40;2.05;;;15.30;99.90;;;;;;4991489;28;20022;-79
2023/08/13 02:29:31;;;;;;;9.18;2.08;;;15.30;99.90;;;;;;4991088;28;20040;-77
2023/08/13 02:31:57;;;;;;;5.25;1.58;;;15.20;99.90;;;;;;4991335;28;20137;-79
2023/08/13 02:34:23;;;;;;;6.97;1.92;;;15.20;99.90;;;;;;4991532;28;20086;-79
2023/08/13 02:36:50;;;;;;;4.47;1.90;;;15.20;99.90;;;;;;4989181;28;20333;-79
2023/08/13 02:39:16;;;;;;;6.15;2.00;;;15.30;99.90;;;;;;4990743;28;20076;-79
2023/08/13 02:41:42;;;;;;;4.13;1.30;;;15.30;99.90;;;;;;4989281;28;20440;-78
2023/08/13 02:44:07;;;;;;;5.35;1.83;;;15.40;99.90;;;;;;4991308;28;20302;-78
2023/08/13 02:46:33;;;;;;;5.60;1.67;;;15.40;99.90;;;;;;4991148;28;20073;-78
2023/08/13 02:48:59;;;;;;;5.47;1.50;;;15.40;99.90;;;;;;4991275;28;20075;-78
2023/08/13 02:51:25;;;;;;;4.43;1.48;;;15.40;99.90;;;;;;4991062;28;20413;-78
2023/08/13 02:53:51;;;;;;;4.25;1.73;;;15.40;99.90;;;;;;4994152;28;20026;-78
2023/08/13 02:56:18;;;;;;;4.35;1.85;;;15.50;99.90;;;;;;5010118;28;20128;-77
2023/08/13 02:58:44;;;;;;;4.10;1.45;;;15.50;99.90;;;;;;4994690;28;20041;-79
2023/08/13 03:01:10;;;;;;;5.03;1.40;;;15.50;99.90;;;;;;5009974;28;20371;-78
2023/08/13 03:03:36;;;;;;;5.47;1.50;;;15.50;99.90;;;;;;4994431;28;20030;-79
2023/08/13 03:06:02;;;;;;;6.13;1.60;;;15.60;99.90;;;;;;4994970;28;20065;-79
2023/08/13 03:08:28;;;;;;;4.32;1.55;;;15.50;99.90;;;;;;4993864;28;20034;-78
2023/08/13 03:10:53;;;;;;;4.13;1.60;;;15.60;99.90;;;;;;4994788;28;20030;-78
2023/08/13 03:13:19;;;;;;;3.53;1.45;;;15.50;99.90;;;;;;4995076;28;20056;-80
2023/08/13 03:15:45;;;;;;;4.45;1.30;;;15.50;99.90;;;;;;4994377;28;20026;-78
2023/08/13 03:18:11;;;;;;;3.00;1.48;;;15.50;99.90;;;;;;5010471;28;20042;-79
2023/08/13 03:20:37;;;;;;;3.13;1.40;;;15.50;99.90;;;;;;4994455;28;20038;-79
2023/08/13 03:23:03;;;;;;;7.45;1.95;;;15.50;99.90;;;;;;4995118;28;20448;-78
2023/08/13 03:25:29;;;;;;;4.32;1.48;;;15.50;99.90;;;;;;4994367;28;20542;-79
2023/08/13 03:27:55;;;;;;;5.03;1.52;;;15.40;99.90;;;;;;4993939;28;20118;-79
2023/08/13 03:30:20;;;;;;;5.82;1.65;;;15.40;99.90;;;;;;4994547;28;20427;-79
2023/08/13 03:32:46;;;;;;;5.80;1.50;;;15.40;99.90;;;;;;4994211;28;20031;-79
2023/08/13 03:35:12;;;;;;;2.88;1.20;;;15.40;99.90;;;;;;5009478;28;20033;-78
2023/08/13 03:37:38;;;;;;;2.88;1.38;;;15.40;99.90;;;;;;4993851;28;20138;-79
2023/08/13 03:40:05;;;;;;;4.93;1.38;;;15.40;99.90;;;;;;5009102;28;20081;-79
2023/08/13 03:42:31;;;;;;;3.80;1.30;;;15.30;99.90;;;;;;4994122;28;20045;-79
2023/08/13 03:44:58;;;;;;;3.42;1.40;;;15.30;99.90;;;;;;4995091;28;20030;-78
2023/08/13 03:47:23;;;;;;;5.82;1.45;;;15.30;99.90;;;;;;4994556;28;20400;-77
2023/08/13 03:49:49;;;;;;;2.70;1.15;;;15.30;99.90;;;;;;4993764;28;20041;-79
2023/08/13 03:52:15;;;;;;;3.88;1.30;;;15.30;99.90;;;;;;4994773;28;20038;-79
2023/08/13 03:54:41;;;;;;;4.45;1.38;;;15.40;99.90;;;;;;4994233;28;20383;-79
2023/08/13 03:57:06;;;;;;;4.10;1.48;;;15.30;99.90;;;;;;4994128;28;20026;-80
2023/08/13 03:59:32;;;;;;;3.70;1.33;;;15.30;99.90;;;;;;4993738;28;20490;-79
2023/08/13 04:01:58;;;;;;;4.68;1.40;;;15.30;99.90;;;;;;4993657;28;20027;-79
2023/08/13 04:04:24;;;;;;;3.47;1.50;;;15.20;99.90;;;;;;4993217;28;20464;-79
2023/08/13 04:06:50;;;;;;;3.95;1.33;;;15.20;99.90;;;;;;4992100;28;20121;-79
2023/08/13 04:09:16;;;;;;;3.92;1.38;;;15.10;99.90;;;;;;4994379;28;20058;-79
2023/08/13 04:11:42;;;;;;;1.80;0.95;;;15.10;99.90;;;;;;4993690;28;20182;-80
2023/08/13 04:14:08;;;;;;;4.00;1.60;;;15.10;99.90;;;;;;4993853;28;20041;-78
2023/08/13 04:16:34;;;;;;;3.63;1.17;;;15.10;99.90;;;;;;4993562;28;20030;-78
2023/08/13 04:19:00;;;;;;;4.57;1.48;;;15.10;99.90;;;;;;4993441;28;20089;-78
2023/08/13 04:21:26;;;;;;;2.58;1.30;;;15.10;99.90;;;;;;4993653;28;20406;-79
2023/08/13 04:23:58;;;;;;;7.55;1.50;;;15.10;99.90;;;;;;4993390;28;20030;-77
2023/08/13 04:26:24;;;;;;;7.05;1.90;;;15.10;99.90;;;;;;4993659;28;20144;-78
2023/08/13 04:28:50;;;;;;;3.47;1.20;;;15.20;99.90;;;;;;4993403;28;20032;-78
2023/08/13 04:31:18;;;;;;;6.57;1.63;;;15.20;99.90;;;;;;4993610;28;20125;-78
2023/08/13 04:33:43;;;;;;;6.72;1.30;;;15.20;99.90;;;;;;4993479;28;20027;-79
2023/08/13 04:36:09;;;;;;;3.25;1.20;;;15.30;99.90;;;;;;4994378;28;20479;-78
2023/08/13 04:38:35;;;;;;;3.40;1.73;;;15.30;99.90;;;;;;4993125;28;20550;-78
2023/08/13 04:41:04;;;;;;;6.38;1.65;;;15.30;99.90;;;;;;4993572;28;20054;-78
2023/08/13 04:43:30;;;;;;;4.85;1.73;;;15.30;99.90;;;;;;4993705;28;20034;-78
2023/08/13 04:45:55;;;;;;;4.97;1.67;;;15.30;99.90;;;;;;4993334;28;20037;-79
2023/08/13 04:48:47;;;;;;;5.60;1.73;;;15.20;99.90;;;;;;4993456;28;20361;-80
2023/08/13 04:51:15;;;;;;;8.43;1.83;;;15.30;99.90;;;;;;4993958;28;20039;-78
2023/08/13 04:53:41;;;;;;;6.97;1.80;;;15.30;99.90;;;;;;4993976;28;20026;-78
2023/08/13 04:56:07;;;;;;;4.45;1.70;;;15.30;99.90;;;;;;4994869;28;20088;-79
2023/08/13 04:58:33;;;;;;;6.13;1.92;;;15.30;99.90;;;;;;4991672;28;20117;-78
2023/08/13 05:01:00;;;;;;;8.25;1.75;;;15.30;99.90;;;;;;4993280;28;20026;-78
2023/08/13 05:03:26;;;;;;;7.57;2.03;;;15.30;99.90;;;;;;4995069;28;20037;-78
2023/08/13 05:05:52;;;;;;;6.75;1.80;;;15.30;99.90;;;;;;4993832;28;20488;-79
2023/08/13 05:08:18;;;;;;;6.50;1.48;;;15.30;99.90;;;;;;5016341;28;20054;-79
2023/08/13 05:10:44;;;;;;;5.75;1.77;;;15.40;99.90;;;;;;5005759;28;20054;-78
2023/08/13 05:13:10;;;;;;;8.60;2.15;;;15.40;99.90;;;;;;5008380;28;20025;-79
2023/08/13 05:15:36;;;;;;;6.72;1.65;;;15.40;99.90;;;;;;5006351;28;20031;-79
2023/08/13 05:18:02;;;;;;;6.90;1.95;;;15.40;99.90;;;;;;4992938;28;20034;-79
2023/08/13 05:20:27;;;;;;;7.45;1.90;;;15.40;99.90;;;;;;4992719;28;20037;-79
2023/08/13 05:22:53;;;;;;;8.00;1.90;;;15.50;99.90;;;;;;4992018;28;20464;-78
2023/08/13 05:25:19;;;;;;;4.53;1.70;;;15.50;99.90;;;;;;4992559;28;20024;-78
2023/08/13 05:27:44;;;;;;;7.10;1.50;;;15.50;99.90;;;;;;4991920;28;20424;-78
2023/08/13 05:30:10;;;;;;;5.05;1.60;;;15.50;99.90;;;;;;4992663;28;20026;-77
2023/08/13 05:32:36;;;;;;;4.03;1.20;;;15.50;99.90;;;;;;4992531;28;20030;-78
2023/08/13 05:35:02;;;;;;;3.53;1.35;;;15.50;99.90;;;;;;4992168;28;20026;-79
2023/08/13 05:37:28;;;;;;;7.75;2.00;;;15.50;99.90;;;;;;4992243;28;20030;-78
2023/08/13 05:39:53;;;;;;;8.07;1.40;;;15.50;99.90;;;;;;4991608;28;20345;-79
2023/08/13 05:42:20;;;;;;;5.78;1.73;;;15.60;99.90;;;;;;4992047;28;20022;-78
2023/08/13 05:44:45;;;;;;;3.55;1.30;;;15.60;99.90;;;;;;4990432;28;20026;-79
2023/08/13 05:47:11;;;;;;;5.47;1.85;;;15.50;99.90;;;;;;4992163;28;20483;-78
2023/08/13 05:49:37;;;;;;;4.00;1.40;;;15.50;99.90;;;;;;4992562;28;20049;-78
2023/08/13 05:52:02;;;;;;;6.40;1.80;;;15.60;99.90;;;;;;4991471;28;20026;-78
2023/08/13 05:54:28;;;;;;;5.80;1.60;;;15.60;99.90;;;;;;4992567;28;20385;-78
2023/08/13 05:56:54;;;;;;;5.25;1.83;;;15.60;99.90;;;;;;4991587;28;20123;-78
2023/08/13 05:59:20;;;;;;;2.90;1.27;;;15.60;99.90;;;;;;4991834;28;20034;-78
2023/08/13 06:01:46;;;;;;;5.93;1.50;;;15.60;99.90;;;;;;4991584;28;20027;-79
2023/08/13 06:04:11;;;;;;;5.68;1.40;;;15.60;99.90;;;;;;4992328;28;20031;-78
2023/08/13 06:06:37;;;;;;;5.70;1.83;;;15.70;99.90;;;;;;5007041;28;20121;-78
2023/08/13 06:09:03;;;;;;;7.53;1.42;;;15.60;99.90;;;;;;4991314;28;20045;-78
2023/08/13 06:11:29;;;;;;;8.32;1.50;;;15.70;99.90;;;;;;4991639;28;20113;-79
2023/08/13 06:13:55;;;;;;;5.32;1.40;;;15.70;99.90;;;;;;4991178;28;20038;-78
2023/08/13 06:16:21;;;;;;;4.70;1.50;;;15.80;99.90;;;;;;4991942;28;20048;-78
2023/08/13 06:18:46;;;;;;;7.60;1.20;;;15.80;99.90;;;;;;4990933;28;20114;-78
2023/08/13 06:21:12;;;;;;;4.53;1.52;;;15.80;99.90;;;;;;4991629;28;20443;-78
2023/08/13 06:23:38;;;;;;;5.85;1.40;;;15.70;99.90;;;;;;4991584;28;20030;-79
2023/08/13 06:26:06;;;;;;;5.93;1.20;;;15.90;99.90;;;;;;4991368;28;20037;-79
2023/08/13 06:28:32;;;;;;;6.47;1.27;;;15.90;99.90;;;;;;4991034;28;20333;-79
2023/08/13 06:30:58;;;;;;;4.28;1.50;;;16.10;99.90;;;;;;4990991;28;20118;-79
2023/08/13 06:33:24;;;;;;;4.95;1.15;;;16.30;99.90;;;;;;4991105;28;20101;-79
2023/08/13 06:35:50;;;;;;;9.68;1.83;;;16.50;99.90;;;;;;4991019;28;20069;-81
2023/08/13 06:38:16;;;;;;;3.70;1.27;;;16.60;99.90;;;;;;4990893;28;20061;-78
2023/08/13 06:40:43;;;;;;;5.95;1.30;;;16.80;99.90;;;;;;4990935;28;20030;-78
2023/08/13 06:43:10;;;;;;;3.60;1.25;;;17.00;99.90;;;;;;4991433;28;20066;-79
2023/08/13 06:45:36;;;;;;;4.68;1.38;;;17.10;99.90;;;;;;4991542;28;20050;-79
2023/08/13 06:48:04;;;;;;;5.65;1.40;;;17.10;99.90;;;;;;4990625;28;20615;-79
2023/08/13 06:50:30;;;;;;;3.75;1.02;;;17.00;99.90;;;;;;4990880;28;20395;-78
2023/08/13 06:52:56;;;;;;;4.88;1.17;;;17.10;99.90;;;;;;4990580;28;20030;-78
2023/08/13 06:55:22;;;;;;;5.40;1.15;;;17.10;99.90;;;;;;4991098;28;20100;-78
2023/08/13 06:57:48;;;;;;;3.40;0.82;;;17.10;99.90;;;;;;4990115;28;20157;-77
2023/08/13 07:00:15;;;;;;;2.40;0.85;;;17.00;99.90;;;;;;4991060;28;20062;-78
2023/08/13 07:02:41;;;;;;;4.65;1.08;;;16.90;99.90;;;;;;4990818;28;20101;-78
2023/08/13 07:05:11;;;;;;;5.70;1.23;;;16.80;99.90;;;;;;4990953;28;20049;-78
2023/08/13 07:07:36;;;;;;;3.40;0.90;;;16.90;99.90;;;;;;4991035;28;20471;-78
2023/08/13 07:10:04;;;;;;;3.80;1.05;;;16.90;99.90;;;;;;4990467;28;20081;-78
2023/08/13 07:12:29;;;;;;;3.25;1.10;;;17.00;99.90;;;;;;4991160;28;20117;-78
2023/08/13 07:14:55;;;;;;;4.32;0.93;;;17.10;99.90;;;;;;4990522;28;20105;-78
2023/08/13 07:17:21;;;;;;;6.32;1.33;;;17.30;99.90;;;;;;4990873;28;20440;-78
2023/08/13 07:19:48;;;;;;;6.45;1.20;;;17.40;99.90;;;;;;4990052;28;20042;-78
2023/08/13 07:22:13;;;;;;;4.55;1.08;;;17.60;99.90;;;;;;4989689;28;20384;-77
2023/08/13 07:24:39;;;;;;;5.45;0.80;;;17.70;99.90;;;;;;4990781;28;20029;-78
2023/08/13 07:27:05;;;;;;;3.38;1.00;;;17.80;99.90;;;;;;4990138;28;20651;-79
2023/08/13 07:29:30;;;;;;;4.25;0.73;;;18.00;99.90;;;;;;4990794;28;20038;-77
2023/08/13 07:31:56;;;;;;;4.18;1.17;;;18.00;99.90;;;;;;4989987;28;20027;-78
2023/08/13 07:34:22;;;;;;;3.70;1.00;;;18.10;99.90;;;;;;4990721;28;20109;-78
2023/08/13 07:36:47;;;;;;;4.00;1.05;;;18.00;99.90;;;;;;4993266;28;20387;-77
2023/08/13 07:39:14;;;;;;;3.55;1.30;;;18.10;99.90;;;;;;4990713;28;20054;-78
2023/08/13 07:41:41;;;;;;;5.13;0.90;;;18.20;99.90;;;;;;4994594;28;20117;-79
2023/08/13 07:44:07;;;;;;;3.55;1.00;;;18.20;99.90;;;;;;5008695;28;20094;-78
2023/08/13 07:46:33;;;;;;;4.03;0.90;;;18.00;99.90;;;;;;4995022;28;20073;-78
2023/08/13 07:48:58;;;;;;;3.13;0.93;;;17.70;99.90;;;;;;4994203;28;20357;-78
2023/08/13 07:51:25;;;;;;;4.30;1.02;;;17.70;99.90;;;;;;5008876;28;20483;-78
2023/08/13 07:53:51;;;;;;;5.30;1.25;;;17.80;99.90;;;;;;4993724;28;20022;-79
2023/08/13 07:56:17;;;;;;;5.43;0.80;;;17.80;99.90;;;;;;4994333;28;20377;-77
2023/08/13 07:58:43;;;;;;;4.68;0.80;;;17.80;99.90;;;;;;4994054;28;20066;-78
2023/08/13 08:01:08;;;;;;;4.07;1.10;;;17.90;99.90;;;;;;4994760;28;20022;-78
2023/08/13 08:03:34;;;;;;;6.63;1.38;;;18.00;99.90;;;;;;4993958;28;20105;-77
2023/08/13 08:06:00;;;;;;;3.75;1.20;;;18.00;99.90;;;;;;4993509;28;20034;-79
2023/08/13 08:08:25;;;;;;;3.42;0.80;;;18.00;99.90;;;;;;4993352;28;20065;-79
2023/08/13 08:10:51;;;;;;;6.95;1.30;;;18.10;99.90;;;;;;4992795;28;20026;-79
2023/08/13 08:13:17;;;;;;;4.65;1.00;;;18.20;99.90;;;;;;4982623;28;20031;-78
2023/08/13 08:15:43;;;;;;;4.07;0.90;;;18.30;99.90;;;;;;4983988;28;20048;-78
2023/08/13 08:18:08;;;;;;;6.18;1.10;;;18.50;99.90;;;;;;4982017;28;20213;-78
2023/08/13 08:20:34;;;;;;;1.23;0.47;;;18.70;99.90;;;;;;4983594;28;20102;-78
2023/08/13 08:23:00;;;;;;;6.32;0.88;;;18.70;99.90;;;;;;4987323;28;20045;-78
2023/08/13 08:25:25;;;;;;;3.88;0.98;;;18.80;99.90;;;;;;4993833;28;20163;-78
2023/08/13 08:27:51;;;;;;;4.32;1.10;;;18.70;99.90;;;;;;4992835;28;20444;-78
2023/08/13 08:30:17;;;;;;;4.28;0.88;;;18.70;99.90;;;;;;4991928;28;20041;-78
2023/08/13 08:32:42;;;;;;;5.88;1.00;;;18.60;99.90;;;;;;4993494;28;20196;-78
2023/08/13 08:35:08;;;;;;;4.60;0.82;;;18.40;99.90;;;;;;4992680;28;20029;-78
2023/08/13 08:37:34;;;;;;;4.88;1.20;;;18.20;99.90;;;;;;4993143;28;20054;-79
2023/08/13 08:40:00;;;;;;;4.38;1.38;;;18.30;99.90;;;;;;4991179;28;20145;-79
2023/08/13 08:42:26;;;;;;;5.57;1.27;;;18.30;99.90;;;;;;4993571;28;20027;-78
2023/08/13 08:44:53;;;;;;;2.83;0.90;;;18.40;99.90;;;;;;4991893;28;20046;-78
2023/08/13 08:47:21;;;;;;;4.78;0.98;;;18.40;99.90;;;;;;4991663;28;20030;-77
2023/08/13 08:49:50;;;;;;;5.40;1.40;;;18.50;99.90;;;;;;4992779;28;20037;-77
2023/08/13 08:52:17;;;;;;;3.38;1.20;;;18.70;99.90;;;;;;4992567;28;20038;-77
2023/08/13 08:54:43;;;;;;;3.15;0.90;;;18.80;99.90;;;;;;4992320;28;20159;-76
2023/08/13 08:57:09;;;;;;;6.78;1.30;;;18.90;99.90;;;;;;4992327;28;20041;-79
2023/08/13 08:59:35;;;;;;;1.90;0.88;;;18.70;99.90;;;;;;4991999;28;20106;-79
2023/08/13 09:02:02;;;;;;;2.38;1.00;;;18.60;99.90;;;;;;4992293;28;20035;-79
2023/08/13 09:04:28;;;;;;;3.75;0.95;;;18.70;99.90;;;;;;4992603;28;20034;-78
2023/08/13 09:06:55;;;;;;;1.65;0.70;;;18.80;99.90;;;;;;4990853;28;20030;-76
2023/08/13 09:09:22;;;;;;;3.67;0.90;;;19.00;99.90;;;;;;4992311;28;20439;-78
2023/08/13 09:11:48;;;;;;;6.63;0.90;;;19.00;99.90;;;;;;4989908;28;20035;-78
2023/08/13 09:14:14;;;;;;;4.13;1.10;;;18.90;99.90;;;;;;4984370;28;20105;-78
2023/08/13 09:16:47;;;;;;;2.55;0.80;;;19.00;99.90;;;;;;4990541;28;20416;-78
2023/08/13 09:19:14;;;;;;;2.13;1.02;;;18.90;99.90;;;;;;4992927;28;20132;-77
2023/08/13 09:21:47;;;;;;;5.88;0.85;;;19.00;99.90;;;;;;4992024;28;20361;-80
2023/08/13 09:24:12;;;;;;;2.10;0.70;;;19.10;99.90;;;;;;4992318;28;20194;-79
2023/08/13 09:26:38;;;;;;;3.00;0.75;;;19.10;99.90;;;;;;4993004;28;20509;-77
2023/08/13 09:29:07;;;;;;;2.20;0.50;;;19.20;99.90;;;;;;4991791;28;20027;-78
2023/08/13 09:31:34;;;;;;;3.00;0.60;;;19.30;99.90;;;;;;4992850;28;20396;-77
2023/08/13 09:34:00;;;;;;;4.88;1.08;;;19.30;99.90;;;;;;4990192;28;20411;-78
2023/08/13 09:36:27;;;;;;;4.72;0.70;;;19.00;99.90;;;;;;4992358;28;20031;-79
2023/08/13 09:38:53;;;;;;;2.67;0.70;;;18.80;99.90;;;;;;4991754;28;20054;-79
2023/08/13 09:41:20;;;;;;;2.72;0.60;;;18.70;99.90;;;;;;4991825;28;20030;-80
2023/08/13 09:43:49;;;;;;;2.88;0.70;;;18.70;99.90;;;;;;4991999;28;20037;-77
2023/08/13 09:46:21;;;;;;;4.28;1.17;;;18.60;99.90;;;;;;4991551;28;20046;-78
2023/08/13 09:48:49;;;;;;;4.38;1.00;;;18.70;99.90;;;;;;4991697;28;20042;-77
2023/08/13 09:51:17;;;;;;;4.18;0.77;;;18.80;99.90;;;;;;4991669;28;20018;-78
2023/08/13 09:53:50;;;;;;;3.13;0.70;;;19.00;99.90;;;;;;4990605;28;20046;-78
2023/08/13 09:56:19;;;;;;;2.92;0.57;;;19.40;99.90;;;;;;4991475;28;20137;-78
2023/08/13 09:58:44;;;;;;;4.50;0.90;;;19.60;99.90;;;;;;4991538;28;20031;-79
2023/08/13 10:01:10;;;;;;;3.33;0.80;;;19.90;99.90;;;;;;4991053;28;20364;-79
2023/08/13 10:03:38;;;;;;;2.92;0.60;;;19.90;99.90;;;;;;4989495;28;20103;-78
2023/08/13 10:06:04;;;;;;;2.80;0.75;;;19.80;99.90;;;;;;4991682;28;20022;-78
2023/08/13 10:08:30;;;;;;;2.40;0.93;;;19.90;99.90;;;;;;4990283;28;20034;-78
2023/08/13 10:10:56;;;;;;;2.47;0.50;;;20.00;99.90;;;;;;4975640;28;20042;-78
2023/08/13 10:13:22;;;;;;;2.60;0.70;;;20.10;99.90;;;;;;4972254;28;20041;-78
2023/08/13 10:15:49;;;;;;;2.97;1.00;;;20.20;99.90;;;;;;4972804;28;20109;-78
2023/08/13 10:18:16;;;;;;;2.90;0.77;;;20.00;99.90;;;;;;4971192;28;20034;-78
2023/08/13 10:20:45;;;;;;;4.03;0.60;;;20.00;99.90;;;;;;4979272;28;20104;-79
2023/08/13 10:23:11;;;;;;;4.00;0.70;;;20.00;99.90;;;;;;4991922;28;20189;-78
2023/08/13 10:25:38;;;;;;;3.88;0.63;;;20.10;99.90;;;;;;4991855;28;20228;-78
2023/08/13 10:28:39;;;;;;;2.00;0.60;;;20.10;99.90;;;;;;4992714;28;20113;-79
2023/08/13 10:31:29;;;;;;;2.72;0.90;;;19.90;99.90;;;;;;4932367;29;20051;-79
2023/08/13 10:34:12;;;;;;;2.63;0.85;;;19.80;99.90;;;;;;4991008;28;20150;-78
2023/08/13 10:36:45;;;;;;;2.20;0.80;;;19.90;99.90;;;;;;5000508;28;20030;-79
2023/08/13 10:39:41;;;;;;;4.03;0.90;;;19.90;99.90;;;;;;4991307;28;20523;-78
2023/08/13 10:42:34;;;;;;;1.40;0.55;;;20.10;99.90;;;;;;4993669;28;20088;-79
2023/08/13 10:45:09;;;;;;;;;;;20.20;99.90;;;;;;4993045;28;20421;-80
2023/08/13 10:47:48;;;;;;;2.67;0.77;;;20.00;99.90;;;;;;4993710;28;19906;-79
2023/08/13 10:50:19;;;;;;;2.15;0.50;;;19.90;99.90;;;;;;4992045;28;20034;-79
2023/08/13 10:52:53;;;;;;;3.83;0.70;;;19.70;99.90;;;;;;4994275;28;20022;-79
2023/08/13 10:55:23;;;;;;;2.97;0.80;;;19.70;99.90;;;;;;4990831;28;20425;-79
2023/08/13 10:57:53;;;;;;;3.88;0.90;;;19.70;99.90;;;;;;4990731;28;20022;-79
2023/08/13 11:00:24;;;;;;;3.65;0.70;;;19.80;99.90;;;;;;4989072;28;20026;-79
2023/08/13 11:02:56;;;;;;;2.15;0.73;;;19.90;99.90;;;;;;4991123;28;20053;-79
2023/08/13 11:05:22;;;;;;;1.45;0.60;;;20.00;99.90;;;;;;4989761;28;20026;-78
2023/08/13 11:07:49;;;;;;;3.55;0.80;;;20.10;99.90;;;;;;4990929;28;20198;-79
2023/08/13 11:10:20;;;;;;;3.40;0.88;;;20.00;99.90;;;;;;4990000;28;20031;-79
2023/08/13 11:12:49;;;;;;;3.53;0.75;;;20.00;99.90;;;;;;4990953;28;20092;-79
2023/08/13 11:15:16;;;;;;;3.22;1.00;;;20.10;99.90;;;;;;4993584;28;20057;-79
2023/08/13 11:17:48;;;;;;;3.80;1.20;;;20.00;99.90;;;;;;4994443;28;20057;-79
2023/08/13 11:20:18;;;;;;;3.20;0.70;;;20.10;99.90;;;;;;4994122;28;20031;-79
2023/08/13 11:22:44;;;;;;;3.22;1.08;;;19.90;99.90;;;;;;4994838;28;20376;-79
2023/08/13 11:25:10;;;;;;;2.00;0.95;;;19.90;99.90;;;;;;4994202;28;20360;-79
2023/08/13 11:27:37;;;;;;;3.28;1.00;;;19.90;99.90;;;;;;4994226;28;20030;-79
2023/08/13 11:30:03;;;;;;;4.53;0.60;;;20.00;99.90;;;;;;4993748;28;20034;-79
2023/08/13 11:32:29;;;;;;;3.80;0.68;;;20.00;99.90;;;;;;4994633;28;20542;-78
2023/08/13 11:34:55;;;;;;;2.95;0.70;;;20.20;99.90;;;;;;4994250;28;20030;-79
2023/08/13 11:37:21;;;;;;;3.50;0.57;;;20.20;99.90;;;;;;4993667;28;20034;-78
2023/08/13 11:39:47;;;;;;;2.65;0.50;;;20.20;99.90;;;;;;4993176;28;20049;-78
2023/08/13 11:42:12;;;;;;;3.95;0.90;;;20.00;99.90;;;;;;4993470;28;20387;-78
2023/08/13 11:44:38;;;;;;;2.38;0.55;;;20.00;99.90;;;;;;4994650;28;20074;-79
2023/08/13 11:47:04;;;;;;;3.50;0.60;;;20.10;99.90;;;;;;4993498;28;20428;-79
2023/08/13 11:49:39;;;;;;;2.25;0.85;;;20.20;99.90;;;;;;4994446;28;20120;-79
2023/08/13 11:52:06;;;;;;;2.70;0.70;;;20.20;99.90;;;;;;4994248;28;20038;-78
2023/08/13 11:54:34;;;;;;;1.95;0.70;;;20.10;99.90;;;;;;4994581;28;20061;-79
2023/08/13 11:56:59;;;;;;;3.53;0.90;;;20.10;99.90;;;;;;4994058;28;20042;-77
2023/08/13 11:59:30;;;;;;;2.45;0.77;;;20.10;99.90;;;;;;4991871;28;20030;-77
2023/08/13 12:01:56;;;;;;;3.70;0.88;;;20.20;99.90;;;;;;4992207;28;20356;-79
2023/08/13 12:04:23;;;;;;;2.30;0.63;;;20.20;99.90;;;;;;4993441;28;20023;-77
2023/08/13 12:06:51;;;;;;;5.50;0.90;;;20.30;99.90;;;;;;4994222;28;20038;-78
2023/08/13 12:09:18;;;;;;;2.03;0.65;;;20.40;99.90;;;;;;4993579;28;20035;-77
2023/08/13 12:11:44;;;;;;;3.83;0.60;;;20.50;99.90;;;;;;4993462;28;20053;-78
2023/08/13 12:14:11;;;;;;;2.70;0.60;;;20.40;99.90;;;;;;4992515;28;20121;-79
2023/08/13 12:16:37;;;;;;;3.40;0.70;;;20.40;99.90;;;;;;4994489;28;20108;-78
2023/08/13 12:19:07;;;;;;;1.95;0.80;;;20.40;99.90;;;;;;4993582;28;20034;-78
2023/08/13 12:21:34;;;;;;;2.08;0.55;;;20.50;99.90;;;;;;4976304;28;20358;-78
2023/08/13 12:24:01;;;;;;;2.17;0.73;;;20.70;99.90;;;;;;4993261;28;20468;-78
2023/08/13 12:26:27;;;;;;;2.75;0.80;;;20.80;99.90;;;;;;4992524;28;20082;-78
2023/08/13 12:28:53;;;;;;;3.72;1.00;;;20.90;99.90;;;;;;4993549;28;20110;-78
2023/08/13 12:31:19;;;;;;;3.65;0.90;;;20.90;99.90;;;;;;4992773;28;20029;-79
2023/08/13 12:33:45;;;;;;;3.95;0.93;;;20.80;99.90;;;;;;4992382;28;20325;-78
2023/08/13 12:36:12;;;;;;;1.60;0.52;;;20.70;99.90;;;;;;4993413;28;20037;-78
2023/08/13 12:38:41;;;;;;;3.05;0.80;;;20.60;99.90;;;;;;4993249;28;20139;-77
2023/08/13 12:41:07;;;;;;;1.40;0.77;;;20.70;99.90;;;;;;4991989;28;20128;-78
2023/08/13 12:43:39;;;;;;;1.67;0.70;;;20.90;99.90;;;;;;4993482;28;20030;-79
2023/08/13 12:46:06;;;;;;;3.40;0.90;;;21.10;99.90;;;;;;4993770;28;20109;-78
2023/08/13 12:48:37;;;;;;;2.30;0.70;;;21.10;99.90;;;;;;4992675;28;20109;-79